Time;durP1;ratioP1;P1;durP2;ratioP2;P2;SDS_P1;SDS_P2;PMS_P1;PMS_P2;Temp;Humidity;BMP_temperature;BMP_pressure;BME280_temperature;BME280_humidity;BME280_pressure;Samples;Min_cycle;Max_cycle;Signal;HPM_P1;HPM_P2
2023/10/18 00:00:25;;;;;;;52.30;30.20;;;;;;;;;;2074628;28;20038;-57
2023/10/18 00:01:26;;;;;;;55.17;29.33;;;;;;;;;;2074461;28;20034;-57
2023/10/18 00:02:26;;;;;;;52.67;28.17;;;;;;;;;;2074707;28;20026;-58
2023/10/18 00:03:31;;;;;;;52.00;32.10;;;;;;;;;;2074480;28;20068;-57
2023/10/18 00:04:31;;;;;;;47.67;31.88;;;;;;;;;;2074430;28;20040;-58
2023/10/18 00:05:32;;;;;;;51.00;26.50;;;;;;;;;;2073465;28;20544;-57
2023/10/18 00:06:34;;;;;;;51.67;29.85;;;;;;;;;;2073476;28;20053;-57
2023/10/18 00:07:35;;;;;;;49.10;31.33;;;;;;;;;;2074436;28;20049;-58
2023/10/18 00:08:36;;;;;;;53.38;32.45;;;;;;;;;;2074259;28;20053;-58
2023/10/18 00:09:45;;;;;;;52.60;32.58;;;;;;;;;;2074309;28;20026;-58
2023/10/18 00:10:46;;;;;;;52.60;30.02;;;;;;;;;;2074023;28;20041;-58
2023/10/18 00:11:48;;;;;;;56.33;33.33;;;;;;;;;;2074592;28;20040;-57
2023/10/18 00:12:52;;;;;;;52.70;31.63;;;;;;;;;;2074304;28;20037;-57
2023/10/18 00:13:53;;;;;;;51.30;30.95;;;;;;;;;;2074183;28;20045;-58
2023/10/18 00:14:54;;;;;;;53.13;32.17;;;;;;;;;;2074081;28;20410;-57
2023/10/18 00:16:01;;;;;;;52.85;29.20;;;;;;;;;;2074186;28;20046;-58
2023/10/18 00:17:02;;;;;;;59.83;33.25;;;;;;;;;;2074308;28;20050;-57
2023/10/18 00:18:03;;;;;;;51.08;30.17;;;;;;;;;;2074246;28;20110;-57
2023/10/18 00:19:03;;;;;;;52.13;31.98;;;;;;;;;;2073800;28;20041;-57
2023/10/18 00:20:13;;;;;;;55.20;29.63;;;;;;;;;;2074317;28;20037;-57
2023/10/18 00:21:14;;;;;;;54.80;32.22;;;;;;;;;;2074086;28;20049;-58
2023/10/18 00:22:15;;;;;;;56.17;33.05;;;;;;;;;;2074601;28;20425;-58
2023/10/18 00:23:16;;;;;;;48.95;29.85;;;;;;;;;;2073576;28;20073;-57
2023/10/18 00:24:16;;;;;;;54.28;31.95;;;;;;;;;;2073655;28;20046;-58
2023/10/18 00:25:19;;;;;;;59.60;33.45;;;;;;;;;;2074500;28;20382;-57
2023/10/18 00:26:20;;;;;;;60.03;31.75;;;;;;;;;;2074323;28;20034;-58
2023/10/18 00:27:25;;;;;;;59.30;34.50;;;;;;;;;;2073640;28;20054;-57
2023/10/18 00:28:28;;;;;;;57.92;33.78;;;;;;;;;;2065678;28;20482;-58
2023/10/18 00:29:29;;;;;;;58.10;32.53;;;;;;;;;;2057411;28;20055;-57
2023/10/18 00:30:30;;;;;;;61.88;35.50;;;;;;;;;;2073287;28;20053;-58
2023/10/18 00:31:31;;;;;;;55.80;30.80;;;;;;;;;;2074280;28;20034;-58
2023/10/18 00:32:32;;;;;;;57.63;34.88;;;;;;;;;;2074104;28;20049;-58
2023/10/18 00:33:35;;;;;;;54.05;30.52;;;;;;;;;;2073569;28;20038;-58
2023/10/18 00:34:36;;;;;;;53.55;29.92;;;;;;;;;;2065547;28;20150;-57
2023/10/18 00:35:39;;;;;;;54.95;30.50;;;;;;;;;;2073206;28;20577;-57
2023/10/18 00:36:40;;;;;;;57.42;31.45;;;;;;;;;;2074217;28;20030;-58
2023/10/18 00:37:44;;;;;;;53.33;29.02;;;;;;;;;;2074045;28;20033;-57
2023/10/18 00:38:45;;;;;;;58.53;33.90;;;;;;;;;;2074258;28;20486;-57
2023/10/18 00:39:46;;;;;;;53.08;33.67;;;;;;;;;;2073828;28;20076;-57
2023/10/18 00:40:51;;;;;;;51.28;28.15;;;;;;;;;;2072818;28;20038;-57
2023/10/18 00:41:55;;;;;;;57.30;32.00;;;;;;;;;;2073466;28;20045;-57
2023/10/18 00:43:29;;;;;;;57.35;30.92;;;;;;;;;;2074205;28;20042;-57
2023/10/18 00:44:29;;;;;;;58.80;32.88;;;;;;;;;;2072688;28;20061;-57
2023/10/18 00:45:31;;;;;;;59.25;35.13;;;;;;;;;;2073340;28;20458;-58
2023/10/18 00:46:33;;;;;;;58.30;34.00;;;;;;;;;;2073331;28;20046;-57
2023/10/18 00:47:35;;;;;;;61.00;33.28;;;;;;;;;;2073597;28;20038;-57
2023/10/18 00:48:36;;;;;;;58.03;30.42;;;;;;;;;;2074082;28;20042;-57
2023/10/18 00:49:37;;;;;;;59.22;34.83;;;;;;;;;;2072408;28;20057;-58
2023/10/18 00:50:42;;;;;;;65.80;38.40;;;;;;;;;;2065243;28;20046;-57
2023/10/18 00:51:43;;;;;;;65.95;37.45;;;;;;;;;;2065288;28;20062;-57
2023/10/18 00:52:44;;;;;;;66.25;37.97;;;;;;;;;;2072881;28;20065;-58
2023/10/18 00:53:46;;;;;;;61.85;36.35;;;;;;;;;;2073444;28;20521;-58
2023/10/18 00:54:47;;;;;;;63.58;36.42;;;;;;;;;;2065020;28;20502;-58
2023/10/18 00:55:48;;;;;;;71.43;38.60;;;;;;;;;;2056992;28;20043;-58
2023/10/18 00:56:50;;;;;;;61.28;37.05;;;;;;;;;;2064427;28;20054;-58
2023/10/18 00:57:51;;;;;;;72.47;40.08;;;;;;;;;;2074196;28;20402;-58
2023/10/18 00:58:53;;;;;;;67.32;36.75;;;;;;;;;;2074057;28;20033;-57
2023/10/18 00:59:56;;;;;;;62.45;35.50;;;;;;;;;;2073627;28;20497;-57
2023/10/18 01:01:10;;;;;;;63.78;35.50;;;;;;;;;;2073325;28;20030;-57
2023/10/18 01:02:11;;;;;;;59.42;34.75;;;;;;;;;;2073137;28;20053;-56
2023/10/18 01:03:32;;;;;;;63.85;35.72;;;;;;;;;;2073837;28;20046;-57
2023/10/18 01:04:34;;;;;;;65.28;38.50;;;;;;;;;;2074150;28;20034;-58
2023/10/18 01:05:35;;;;;;;63.28;36.45;;;;;;;;;;2073424;28;20046;-58
2023/10/18 01:06:36;;;;;;;64.78;36.55;;;;;;;;;;2073271;28;20042;-57
2023/10/18 01:07:37;;;;;;;63.55;38.08;;;;;;;;;;2073337;28;20046;-58
2023/10/18 01:08:38;;;;;;;57.55;32.42;;;;;;;;;;2065264;28;20049;-57
2023/10/18 01:09:53;;;;;;;63.05;37.53;;;;;;;;;;2057282;28;20085;-58
2023/10/18 01:10:54;;;;;;;62.17;35.67;;;;;;;;;;2066511;28;20046;-57
2023/10/18 01:11:55;;;;;;;68.75;37.10;;;;;;;;;;2073101;28;20093;-57
2023/10/18 01:12:55;;;;;;;66.78;37.83;;;;;;;;;;2073349;28;20104;-57
2023/10/18 01:14:00;;;;;;;62.72;31.85;;;;;;;;;;2073089;28;20045;-57
2023/10/18 01:15:01;;;;;;;61.08;36.63;;;;;;;;;;2073197;28;20042;-57
2023/10/18 01:16:06;;;;;;;67.40;38.88;;;;;;;;;;2073640;28;20049;-57
2023/10/18 01:17:07;;;;;;;68.28;36.60;;;;;;;;;;2073949;28;20034;-57
2023/10/18 01:18:08;;;;;;;63.10;33.00;;;;;;;;;;2073316;28;20056;-58
2023/10/18 01:19:09;;;;;;;59.83;32.72;;;;;;;;;;2073760;28;20037;-57
2023/10/18 01:20:33;;;;;;;62.90;35.22;;;;;;;;;;2073893;28;20083;-57
2023/10/18 01:21:34;;;;;;;71.43;38.88;;;;;;;;;;2074075;28;20041;-57
2023/10/18 01:22:37;;;;;;;63.50;34.35;;;;;;;;;;2074335;28;20069;-57
2023/10/18 01:23:38;;;;;;;65.18;37.10;;;;;;;;;;2073522;28;20046;-57
2023/10/18 01:24:39;;;;;;;72.35;35.45;;;;;;;;;;2072787;28;20045;-57
2023/10/18 01:25:40;;;;;;;64.80;34.50;;;;;;;;;;2072740;28;20414;-58
2023/10/18 01:26:41;;;;;;;69.57;37.85;;;;;;;;;;2073802;28;20052;-57
2023/10/18 01:27:43;;;;;;;68.57;39.42;;;;;;;;;;2073397;28;20041;-58
2023/10/18 01:28:44;;;;;;;68.85;40.38;;;;;;;;;;2073454;28;20033;-57
2023/10/18 01:29:45;;;;;;;71.82;35.13;;;;;;;;;;2073935;28;20041;-57
2023/10/18 01:30:46;;;;;;;64.43;34.80;;;;;;;;;;2073740;28;20034;-57
2023/10/18 01:31:49;;;;;;;64.75;37.95;;;;;;;;;;2073458;28;20046;-57
2023/10/18 01:32:51;;;;;;;69.57;40.60;;;;;;;;;;2072685;28;20037;-57
2023/10/18 01:33:53;;;;;;;69.22;36.60;;;;;;;;;;2073612;28;20050;-58
2023/10/18 01:34:55;;;;;;;68.15;36.13;;;;;;;;;;2074062;28;20026;-58
2023/10/18 01:35:56;;;;;;;76.03;38.85;;;;;;;;;;2073331;28;20038;-57
2023/10/18 01:36:56;;;;;;;69.18;36.10;;;;;;;;;;2073212;28;20033;-58
2023/10/18 01:38:00;;;;;;;77.20;41.78;;;;;;;;;;2073204;28;20045;-58
2023/10/18 01:39:03;;;;;;;67.15;36.25;;;;;;;;;;2064674;28;20101;-57
2023/10/18 01:40:35;;;;;;;79.80;42.35;;;;;;;;;;2073188;28;20037;-57
2023/10/18 01:41:38;;;;;;;70.38;41.08;;;;;;;;;;2064432;28;20093;-57
2023/10/18 01:42:39;;;;;;;72.70;42.03;;;;;;;;;;2065317;28;20042;-57
2023/10/18 01:43:41;;;;;;;80.63;41.25;;;;;;;;;;2072387;28;20045;-57
2023/10/18 01:44:42;;;;;;;74.85;41.00;;;;;;;;;;2073526;28;20038;-58
2023/10/18 01:45:43;;;;;;;70.93;40.75;;;;;;;;;;2073415;28;20049;-57
2023/10/18 01:46:46;;;;;;;79.47;42.47;;;;;;;;;;2064709;28;20475;-57
2023/10/18 01:47:48;;;;;;;72.70;37.55;;;;;;;;;;2064989;28;20046;-57
2023/10/18 01:48:52;;;;;;;78.00;38.67;;;;;;;;;;2074280;28;20545;-58
2023/10/18 01:49:53;;;;;;;78.35;43.80;;;;;;;;;;2075058;28;20050;-57
2023/10/18 01:50:56;;;;;;;78.32;42.83;;;;;;;;;;2075482;28;20033;-57
2023/10/18 01:51:57;;;;;;;82.60;43.58;;;;;;;;;;2075646;28;20048;-57
2023/10/18 01:53:01;;;;;;;82.95;45.22;;;;;;;;;;2074602;28;20046;-57
2023/10/18 01:54:12;;;;;;;72.10;42.17;;;;;;;;;;2066969;28;20042;-58
2023/10/18 01:55:13;;;;;;;78.95;42.38;;;;;;;;;;2074864;28;20034;-58
2023/10/18 01:56:17;;;;;;;76.00;43.95;;;;;;;;;;2074203;28;20041;-57
2023/10/18 01:57:18;;;;;;;75.47;40.22;;;;;;;;;;2074649;28;20046;-57
2023/10/18 01:58:23;;;;;;;83.13;40.75;;;;;;;;;;2066700;28;20403;-57
2023/10/18 01:59:27;;;;;;;77.78;41.50;;;;;;;;;;2074890;28;20048;-57
2023/10/18 02:00:34;;;;;;;78.70;42.80;;;;;;;;;;2074586;28;20045;-57
2023/10/18 02:01:35;;;;;;;80.78;43.05;;;;;;;;;;2074823;28;20033;-57
2023/10/18 02:02:36;;;;;;;77.57;45.13;;;;;;;;;;2075340;28;20076;-58
2023/10/18 02:03:39;;;;;;;77.15;41.20;;;;;;;;;;2075501;28;20034;-57
2023/10/18 02:04:40;;;;;;;89.13;47.30;;;;;;;;;;2075342;28;20042;-57
2023/10/18 02:05:43;;;;;;;80.68;43.78;;;;;;;;;;2074672;28;20517;-58
2023/10/18 02:06:47;;;;;;;77.65;42.58;;;;;;;;;;2066522;28;20529;-58
2023/10/18 02:07:48;;;;;;;84.15;42.30;;;;;;;;;;2066912;28;20065;-58
2023/10/18 02:08:49;;;;;;;80.18;44.13;;;;;;;;;;2074770;28;20030;-57
2023/10/18 02:09:52;;;;;;;85.45;47.15;;;;;;;;;;2074465;28;20054;-57
2023/10/18 02:10:53;;;;;;;91.07;47.47;;;;;;;;;;2075255;28;20477;-57
2023/10/18 02:11:54;;;;;;;80.07;43.97;;;;;;;;;;2075030;28;20071;-57
2023/10/18 02:12:54;;;;;;;85.65;43.13;;;;;;;;;;2074562;28;20049;-57
2023/10/18 02:13:55;;;;;;;86.32;39.85;;;;;;;;;;2074319;28;20128;-57
2023/10/18 02:14:56;;;;;;;87.95;46.97;;;;;;;;;;2074777;28;20045;-57
2023/10/18 02:15:58;;;;;;;88.57;45.70;;;;;;;;;;2075119;28;20044;-57
2023/10/18 02:16:59;;;;;;;82.65;42.35;;;;;;;;;;2074978;28;20045;-57
2023/10/18 02:18:00;;;;;;;88.60;43.30;;;;;;;;;;2074591;28;20050;-58
2023/10/18 02:19:01;;;;;;;83.70;41.65;;;;;;;;;;2074178;28;20050;-58
2023/10/18 02:20:12;;;;;;;93.75;45.33;;;;;;;;;;2074663;28;20053;-57
2023/10/18 02:21:14;;;;;;;84.90;44.03;;;;;;;;;;2075352;28;20034;-58
2023/10/18 02:22:16;;;;;;;84.97;44.25;;;;;;;;;;2075366;28;20036;-58
2023/10/18 02:23:16;;;;;;;91.75;47.45;;;;;;;;;;2074997;28;20053;-58
2023/10/18 02:24:17;;;;;;;86.80;42.45;;;;;;;;;;2074890;28;20478;-57
2023/10/18 02:25:24;;;;;;;80.68;39.88;;;;;;;;;;2075259;28;20482;-58
2023/10/18 02:26:31;;;;;;;81.13;43.53;;;;;;;;;;2074873;28;20053;-57
2023/10/18 02:27:31;;;;;;;90.82;46.28;;;;;;;;;;2075343;28;20470;-58
2023/10/18 02:28:32;;;;;;;88.65;46.20;;;;;;;;;;2074478;28;20054;-58
2023/10/18 02:29:39;;;;;;;88.07;43.78;;;;;;;;;;2075161;28;20065;-57
2023/10/18 02:30:40;;;;;;;96.57;45.40;;;;;;;;;;2075176;28;20030;-58
2023/10/18 02:31:41;;;;;;;88.60;42.45;;;;;;;;;;2074526;28;20046;-57
2023/10/18 02:32:42;;;;;;;94.65;42.38;;;;;;;;;;2075236;28;20037;-58
2023/10/18 02:33:42;;;;;;;80.32;39.78;;;;;;;;;;2075172;28;20068;-62
2023/10/18 02:34:43;;;;;;;86.22;41.88;;;;;;;;;;2075153;28;20037;-58
2023/10/18 02:35:46;;;;;;;85.82;46.97;;;;;;;;;;2075024;28;20041;-57
2023/10/18 02:36:48;;;;;;;78.20;40.13;;;;;;;;;;2074358;28;20041;-58
2023/10/18 02:37:51;;;;;;;81.53;45.28;;;;;;;;;;2073901;28;20144;-57
2023/10/18 02:38:55;;;;;;;89.25;45.30;;;;;;;;;;2075021;28;20034;-57
2023/10/18 02:40:07;;;;;;;87.10;43.97;;;;;;;;;;2074037;28;20068;-57
2023/10/18 02:41:18;;;;;;;82.13;38.53;;;;;;;;;;2067968;28;20038;-58
2023/10/18 02:42:18;;;;;;;;;;;;;;;;;;2075137;28;20529;-60
2023/10/18 02:43:19;;;;;;;86.75;39.15;;;;;;;;;;2074963;28;19910;-58
2023/10/18 02:44:23;;;;;;;89.13;44.70;;;;;;;;;;2074443;28;20045;-58
2023/10/18 02:45:24;;;;;;;96.30;50.20;;;;;;;;;;2074318;28;20378;-57
2023/10/18 02:46:25;;;;;;;90.38;43.78;;;;;;;;;;2074074;28;20057;-57
2023/10/18 02:47:29;;;;;;;93.35;46.67;;;;;;;;;;2066257;28;20038;-57
2023/10/18 02:48:31;;;;;;;92.90;44.25;;;;;;;;;;2074403;28;20032;-58
2023/10/18 02:49:32;;;;;;;91.70;46.05;;;;;;;;;;2073652;28;20498;-57
2023/10/18 02:50:33;;;;;;;94.32;45.42;;;;;;;;;;2065802;28;20081;-58
2023/10/18 02:51:35;;;;;;;86.20;46.92;;;;;;;;;;2066107;28;20411;-57
2023/10/18 02:52:37;;;;;;;91.95;46.08;;;;;;;;;;2066700;28;20038;-57
2023/10/18 02:53:41;;;;;;;99.75;49.65;;;;;;;;;;2074313;28;20034;-58
2023/10/18 02:54:42;;;;;;;96.75;49.92;;;;;;;;;;2074922;28;20045;-58
2023/10/18 02:55:49;;;;;;;101.15;53.03;;;;;;;;;;2074357;28;20067;-58
2023/10/18 02:56:50;;;;;;;104.78;49.35;;;;;;;;;;2067431;28;20030;-57
2023/10/18 02:57:52;;;;;;;98.55;51.92;;;;;;;;;;2074371;28;20022;-58
2023/10/18 02:58:57;;;;;;;103.25;52.80;;;;;;;;;;2074766;28;20093;-58
2023/10/18 02:59:59;;;;;;;93.72;49.33;;;;;;;;;;2074665;28;20045;-58
2023/10/18 03:01:12;;;;;;;95.20;51.58;;;;;;;;;;2074773;28;20040;-57
2023/10/18 03:02:15;;;;;;;91.32;49.03;;;;;;;;;;2074001;28;20046;-57
2023/10/18 03:03:18;;;;;;;97.55;53.20;;;;;;;;;;2073860;28;20053;-57
2023/10/18 03:04:20;;;;;;;116.22;54.83;;;;;;;;;;2074800;28;20058;-58
2023/10/18 03:05:21;;;;;;;109.20;54.30;;;;;;;;;;2074668;28;20041;-58
2023/10/18 03:06:24;;;;;;;95.13;53.30;;;;;;;;;;2074899;28;20052;-58
2023/10/18 03:07:27;;;;;;;106.10;55.20;;;;;;;;;;2074561;28;20060;-58
2023/10/18 03:08:28;;;;;;;102.32;52.72;;;;;;;;;;2075044;28;20034;-57
2023/10/18 03:10:45;;;;;;;96.68;50.40;;;;;;;;;;2074526;28;20057;-57
2023/10/18 03:11:47;;;;;;;102.55;53.17;;;;;;;;;;2074386;28;20046;-58
2023/10/18 03:12:49;;;;;;;104.78;54.72;;;;;;;;;;2073927;28;20544;-57
2023/10/18 03:13:51;;;;;;;110.43;58.03;;;;;;;;;;2074556;28;20497;-58
2023/10/18 03:14:54;;;;;;;103.00;52.42;;;;;;;;;;2074001;28;20045;-57
2023/10/18 03:16:04;;;;;;;110.85;54.00;;;;;;;;;;2073034;28;20038;-57
2023/10/18 03:18:25;;;;;;;95.72;51.80;;;;;;;;;;2074943;28;20030;-57
2023/10/18 03:19:25;;;;;;;106.63;55.83;;;;;;;;;;2074483;28;20057;-57
2023/10/18 03:20:26;;;;;;;105.10;53.95;;;;;;;;;;2074946;28;20057;-57
2023/10/18 03:21:32;;;;;;;105.38;56.40;;;;;;;;;;2074755;28;20045;-57
2023/10/18 03:22:32;;;;;;;105.00;56.28;;;;;;;;;;2074742;28;20474;-57
2023/10/18 03:23:44;;;;;;;109.13;55.97;;;;;;;;;;2074291;28;20038;-57
2023/10/18 03:24:46;;;;;;;111.82;56.60;;;;;;;;;;2073994;28;20045;-57
2023/10/18 03:25:48;;;;;;;108.47;57.17;;;;;;;;;;2066121;28;20580;-58
2023/10/18 03:26:49;;;;;;;108.95;56.70;;;;;;;;;;2074071;28;20029;-57
2023/10/18 03:27:50;;;;;;;109.20;58.03;;;;;;;;;;2074049;28;20505;-58
2023/10/18 03:28:51;;;;;;;113.88;58.80;;;;;;;;;;2074292;28;20045;-58
2023/10/18 03:29:58;;;;;;;115.82;60.05;;;;;;;;;;2073663;28;20072;-58
2023/10/18 03:31:00;;;;;;;122.32;60.40;;;;;;;;;;2058789;28;20074;-57
2023/10/18 03:32:06;;;;;;;110.25;56.33;;;;;;;;;;2066168;28;20034;-57
2023/10/18 03:33:07;;;;;;;106.60;56.47;;;;;;;;;;2074906;28;20049;-58
2023/10/18 03:34:18;;;;;;;107.65;56.05;;;;;;;;;;2074803;28;20482;-57
2023/10/18 03:35:21;;;;;;;106.18;55.15;;;;;;;;;;2074766;28;20037;-58
2023/10/18 03:36:25;;;;;;;112.00;54.35;;;;;;;;;;2074084;28;20038;-58
2023/10/18 03:37:26;;;;;;;112.30;55.10;;;;;;;;;;2074632;28;20038;-58
2023/10/18 03:38:30;;;;;;;101.15;55.70;;;;;;;;;;2073047;28;20049;-58
2023/10/18 03:39:30;;;;;;;119.72;57.70;;;;;;;;;;2073444;28;20053;-57
2023/10/18 03:40:36;;;;;;;117.82;58.72;;;;;;;;;;2074627;28;20034;-58
2023/10/18 03:41:40;;;;;;;116.47;56.50;;;;;;;;;;2074259;28;20045;-58
2023/10/18 03:42:45;;;;;;;107.93;54.83;;;;;;;;;;2073334;28;20034;-58
2023/10/18 03:43:48;;;;;;;126.05;57.80;;;;;;;;;;2073496;28;20046;-57
2023/10/18 03:44:51;;;;;;;111.80;56.22;;;;;;;;;;2074379;28;20477;-57
2023/10/18 03:46:09;;;;;;;108.95;52.13;;;;;;;;;;2073925;28;20037;-57
2023/10/18 03:47:13;;;;;;;113.15;54.47;;;;;;;;;;2068054;28;20054;-58
2023/10/18 03:48:23;;;;;;;113.03;55.33;;;;;;;;;;2073360;28;20045;-57
2023/10/18 03:50:47;;;;;;;115.30;59.28;;;;;;;;;;2073853;28;20433;-58
2023/10/18 03:51:48;;;;;;;116.20;52.70;;;;;;;;;;2073608;28;20053;-57
2023/10/18 03:52:50;;;;;;;111.47;56.58;;;;;;;;;;2073821;28;20040;-58
2023/10/18 03:53:55;;;;;;;114.63;54.75;;;;;;;;;;2065689;28;20030;-58
2023/10/18 03:55:56;;;;;;;115.70;56.45;;;;;;;;;;2065763;28;20038;-59
2023/10/18 03:56:57;;;;;;;119.18;60.13;;;;;;;;;;2065785;28;20086;-57
2023/10/18 03:57:58;;;;;;;112.47;59.17;;;;;;;;;;2065142;28;20054;-57
2023/10/18 04:00:28;;;;;;;120.22;58.70;;;;;;;;;;2074565;28;20037;-58
2023/10/18 04:01:39;;;;;;;119.97;59.90;;;;;;;;;;2074455;28;20045;-60
2023/10/18 04:02:45;;;;;;;117.05;56.92;;;;;;;;;;2074436;28;20046;-58
2023/10/18 04:03:46;;;;;;;118.95;58.25;;;;;;;;;;2074661;28;20108;-58
2023/10/18 04:04:50;;;;;;;114.80;55.45;;;;;;;;;;2073764;28;20054;-58
2023/10/18 04:05:52;;;;;;;128.07;59.42;;;;;;;;;;2074212;28;20038;-58
2023/10/18 04:06:58;;;;;;;117.80;55.92;;;;;;;;;;2074333;28;20026;-59
2023/10/18 04:07:59;;;;;;;100.05;52.35;;;;;;;;;;2074425;28;20034;-58
2023/10/18 04:09:13;;;;;;;119.25;58.35;;;;;;;;;;2074010;28;20042;-58
2023/10/18 04:10:17;;;;;;;106.40;53.90;;;;;;;;;;2073810;28;20049;-58
2023/10/18 04:11:28;;;;;;;108.93;55.05;;;;;;;;;;2073983;28;20042;-57
2023/10/18 04:12:29;;;;;;;104.00;50.55;;;;;;;;;;2074570;28;20045;-57
2023/10/18 04:13:33;;;;;;;101.10;51.15;;;;;;;;;;2074241;28;20172;-57
2023/10/18 04:14:34;;;;;;;106.32;52.28;;;;;;;;;;2074391;28;20462;-57
2023/10/18 04:15:37;;;;;;;95.53;52.75;;;;;;;;;;2074097;28;20065;-58
2023/10/18 04:16:39;;;;;;;100.78;51.08;;;;;;;;;;2074240;28;20060;-57
2023/10/18 04:17:42;;;;;;;86.97;50.47;;;;;;;;;;2073766;28;20045;-57
2023/10/18 04:18:43;;;;;;;99.03;49.05;;;;;;;;;;2073716;28;20102;-57
2023/10/18 04:19:43;;;;;;;93.97;51.20;;;;;;;;;;2074075;28;20098;-57
2023/10/18 04:20:47;;;;;;;99.63;51.63;;;;;;;;;;2074272;28;20030;-58
2023/10/18 04:21:53;;;;;;;83.40;48.53;;;;;;;;;;2073424;28;20046;-57
2023/10/18 04:22:53;;;;;;;88.82;50.38;;;;;;;;;;2073512;28;20034;-58
2023/10/18 04:23:56;;;;;;;89.88;47.72;;;;;;;;;;2074358;28;20041;-57
2023/10/18 04:24:57;;;;;;;96.30;51.63;;;;;;;;;;2074251;28;20025;-57
2023/10/18 04:25:58;;;;;;;94.60;51.25;;;;;;;;;;2073601;28;20053;-57
2023/10/18 04:27:02;;;;;;;94.75;47.53;;;;;;;;;;2074159;28;20405;-57
2023/10/18 04:28:02;;;;;;;98.20;49.97;;;;;;;;;;2074153;28;20062;-57
2023/10/18 04:29:10;;;;;;;93.28;51.35;;;;;;;;;;2074292;28;20091;-58
2023/10/18 04:30:16;;;;;;;94.72;47.08;;;;;;;;;;2074096;28;20053;-57
2023/10/18 04:31:21;;;;;;;87.93;49.15;;;;;;;;;;2074201;28;20046;-58
2023/10/18 04:32:23;;;;;;;89.28;48.38;;;;;;;;;;2074090;28;20037;-57
2023/10/18 04:33:28;;;;;;;90.32;46.13;;;;;;;;;;2074530;28;20029;-57
2023/10/18 04:34:29;;;;;;;105.88;56.17;;;;;;;;;;2074338;28;20041;-58
2023/10/18 04:35:36;;;;;;;88.18;49.95;;;;;;;;;;2073895;28;20410;-57
2023/10/18 04:36:36;;;;;;;84.35;46.42;;;;;;;;;;2073582;28;20038;-57
2023/10/18 04:37:37;;;;;;;91.88;48.80;;;;;;;;;;2073077;28;20386;-58
2023/10/18 04:38:47;;;;;;;86.60;46.60;;;;;;;;;;2074434;28;20488;-57
2023/10/18 04:39:48;;;;;;;101.50;49.40;;;;;;;;;;2073957;28;20100;-57
2023/10/18 04:40:52;;;;;;;98.18;49.92;;;;;;;;;;2073801;28;20081;-57
2023/10/18 04:41:53;;;;;;;87.22;44.35;;;;;;;;;;2074063;28;20038;-58
2023/10/18 04:42:55;;;;;;;93.90;48.38;;;;;;;;;;2073422;28;20046;-58
2023/10/18 04:44:04;;;;;;;95.28;42.70;;;;;;;;;;2074072;28;20033;-58
2023/10/18 04:45:16;;;;;;;93.53;41.00;;;;;;;;;;2074052;28;20053;-58
2023/10/18 04:46:18;;;;;;;89.10;42.35;;;;;;;;;;2073082;28;20057;-57
2023/10/18 04:47:19;;;;;;;99.32;50.60;;;;;;;;;;2072840;28;20061;-57
2023/10/18 04:48:36;;;;;;;83.97;46.35;;;;;;;;;;2074016;28;20030;-57
2023/10/18 04:49:38;;;;;;;83.45;40.67;;;;;;;;;;2073567;28;20046;-58
2023/10/18 04:50:39;;;;;;;79.22;37.97;;;;;;;;;;2073716;28;20069;-57
2023/10/18 04:52:40;;;;;;;77.82;40.33;;;;;;;;;;2074329;28;20473;-58
2023/10/18 04:53:43;;;;;;;84.00;42.58;;;;;;;;;;2074094;28;20052;-57
2023/10/18 04:54:59;;;;;;;81.47;43.33;;;;;;;;;;2074206;28;20033;-57
2023/10/18 04:56:02;;;;;;;77.72;38.25;;;;;;;;;;2074094;28;20078;-57
2023/10/18 04:57:10;;;;;;;92.28;49.28;;;;;;;;;;2073384;28;20042;-57
2023/10/18 04:58:15;;;;;;;90.35;42.47;;;;;;;;;;2072755;28;20053;-57
2023/10/18 05:00:35;;;;;;;87.85;42.97;;;;;;;;;;2074008;28;20096;-57
2023/10/18 05:01:56;;;;;;;133.48;53.90;;;;;;;;;;2072955;28;20048;-57
2023/10/18 05:02:58;;;;;;;108.43;52.85;;;;;;;;;;2073637;28;20029;-57
2023/10/18 05:04:03;;;;;;;97.75;45.85;;;;;;;;;;2074231;28;20030;-57
2023/10/18 05:05:10;;;;;;;107.85;52.45;;;;;;;;;;2074109;28;20386;-57
2023/10/18 05:06:11;;;;;;;99.15;42.95;;;;;;;;;;2073369;28;20466;-57
2023/10/18 05:08:16;;;;;;;110.68;47.17;;;;;;;;;;2073628;28;20053;-57
2023/10/18 05:09:18;;;;;;;110.78;51.65;;;;;;;;;;2073883;28;20048;-57
2023/10/18 05:10:19;;;;;;;118.07;53.17;;;;;;;;;;2074103;28;20331;-57
2023/10/18 05:11:23;;;;;;;109.22;51.28;;;;;;;;;;2073501;28;20050;-57
2023/10/18 05:13:33;;;;;;;130.80;58.78;;;;;;;;;;2073896;28;20050;-60
2023/10/18 05:14:43;;;;;;;120.93;50.45;;;;;;;;;;2074024;28;20042;-57
2023/10/18 05:15:43;;;;;;;141.65;62.35;;;;;;;;;;2073996;28;20041;-58
2023/10/18 05:16:46;;;;;;;136.48;60.72;;;;;;;;;;2074292;28;20446;-57
2023/10/18 05:17:49;;;;;;;124.53;58.45;;;;;;;;;;2073882;28;20057;-57
2023/10/18 05:18:50;;;;;;;164.40;57.67;;;;;;;;;;2074011;28;20497;-58
2023/10/18 05:19:51;;;;;;;143.13;58.55;;;;;;;;;;2074102;28;20084;-58
2023/10/18 05:21:52;;;;;;;190.23;70.22;;;;;;;;;;2073565;28;20045;-57
2023/10/18 05:22:58;;;;;;;131.93;60.42;;;;;;;;;;2072728;28;20034;-58
2023/10/18 05:23:59;;;;;;;134.55;61.45;;;;;;;;;;2072529;28;20057;-57
2023/10/18 05:26:18;;;;;;;135.77;55.15;;;;;;;;;;2074005;28;20493;-57
2023/10/18 05:27:19;;;;;;;137.52;50.75;;;;;;;;;;2074026;28;20057;-57
2023/10/18 05:28:28;;;;;;;169.45;51.50;;;;;;;;;;2073908;28;20038;-57
2023/10/18 05:29:34;;;;;;;161.63;63.95;;;;;;;;;;2073839;28;20072;-58
2023/10/18 05:32:09;;;;;;;130.52;58.47;;;;;;;;;;2074085;28;20037;-57
2023/10/18 05:33:15;;;;;;;147.30;63.55;;;;;;;;;;2072936;28;20041;-57
2023/10/18 05:35:19;;;;;;;279.98;75.47;;;;;;;;;;2073876;28;20104;-57
2023/10/18 05:37:32;;;;;;;214.52;60.05;;;;;;;;;;2073896;28;20041;-57
2023/10/18 05:41:18;;;;;;;259.20;61.22;;;;;;;;;;2073376;28;20049;-57
2023/10/18 05:42:21;;;;;;;305.30;82.05;;;;;;;;;;2074029;28;20034;-57
2023/10/18 05:43:22;;;;;;;248.23;61.22;;;;;;;;;;2073876;28;20049;-56
2023/10/18 05:44:24;;;;;;;298.20;74.35;;;;;;;;;;2073428;28;20069;-58
2023/10/18 05:45:31;;;;;;;281.27;61.40;;;;;;;;;;2073138;28;20398;-59
2023/10/18 05:46:32;;;;;;;346.35;79.20;;;;;;;;;;2074023;28;20045;-57
2023/10/18 05:47:34;;;;;;;320.67;81.03;;;;;;;;;;2073461;28;20482;-58
2023/10/18 05:48:40;;;;;;;194.15;65.88;;;;;;;;;;2073799;28;20050;-56
2023/10/18 05:49:41;;;;;;;233.63;74.60;;;;;;;;;;2073698;28;20482;-57
2023/10/18 05:50:48;;;;;;;308.50;66.18;;;;;;;;;;2073043;28;20046;-56
2023/10/18 05:53:12;;;;;;;246.40;66.75;;;;;;;;;;2073827;28;20041;-56
2023/10/18 05:54:15;;;;;;;401.27;83.95;;;;;;;;;;2073364;28;20041;-56
2023/10/18 05:55:16;;;;;;;378.58;85.68;;;;;;;;;;2073711;28;20046;-57
2023/10/18 05:56:24;;;;;;;293.95;81.53;;;;;;;;;;2073970;28;20049;-57
2023/10/18 05:57:25;;;;;;;388.05;96.35;;;;;;;;;;2073994;28;20038;-59
2023/10/18 05:58:25;;;;;;;323.42;82.72;;;;;;;;;;2073885;28;20034;-56
2023/10/18 05:59:33;;;;;;;493.23;101.88;;;;;;;;;;2073114;28;20045;-57
2023/10/18 06:00:34;;;;;;;358.55;71.75;;;;;;;;;;2073529;28;20050;-56
2023/10/18 06:01:35;;;;;;;395.98;79.60;;;;;;;;;;2074087;28;20363;-57
2023/10/18 06:02:37;;;;;;;222.52;69.82;;;;;;;;;;2073446;28;20042;-57
2023/10/18 06:03:41;;;;;;;565.13;110.28;;;;;;;;;;2073376;28;20037;-56
2023/10/18 06:04:44;;;;;;;310.85;79.15;;;;;;;;;;2073188;28;20052;-57
2023/10/18 06:05:45;;;;;;;387.33;91.53;;;;;;;;;;2073215;28;20462;-56
2023/10/18 06:06:47;;;;;;;298.67;74.63;;;;;;;;;;2073801;28;20026;-57
2023/10/18 06:07:48;;;;;;;358.25;87.30;;;;;;;;;;2073876;28;20034;-57
2023/10/18 06:08:49;;;;;;;507.98;114.50;;;;;;;;;;2073815;28;20026;-57
2023/10/18 06:11:00;;;;;;;325.17;71.03;;;;;;;;;;2074091;28;20348;-57
2023/10/18 06:12:03;;;;;;;484.85;92.95;;;;;;;;;;2073679;28;20054;-57
2023/10/18 06:13:10;;;;;;;499.25;98.82;;;;;;;;;;2073809;28;20034;-57
2023/10/18 06:14:16;;;;;;;326.95;90.57;;;;;;;;;;2073954;28;20389;-58
2023/10/18 06:15:34;;;;;;;479.58;109.93;;;;;;;;;;2073303;28;20049;-57
2023/10/18 06:16:34;;;;;;;399.25;100.85;;;;;;;;;;2073733;28;20054;-57
2023/10/18 06:17:47;;;;;;;331.05;91.72;;;;;;;;;;2073400;28;20103;-57
2023/10/18 06:18:48;;;;;;;287.23;76.60;;;;;;;;;;2073318;28;20057;-57
2023/10/18 06:19:52;;;;;;;303.02;86.07;;;;;;;;;;2073659;28;20053;-56
2023/10/18 06:20:54;;;;;;;327.75;84.22;;;;;;;;;;2073893;28;20378;-57
2023/10/18 06:22:13;;;;;;;281.58;77.63;;;;;;;;;;2073464;28;20394;-56
2023/10/18 06:24:33;;;;;;;285.35;83.35;;;;;;;;;;2073939;28;20026;-57
2023/10/18 06:25:49;;;;;;;268.98;74.25;;;;;;;;;;2072672;28;20065;-57
2023/10/18 06:26:52;;;;;;;252.45;74.40;;;;;;;;;;2073342;28;20042;-57
2023/10/18 06:27:53;;;;;;;342.05;93.55;;;;;;;;;;2073684;28;20026;-57
2023/10/18 06:29:09;;;;;;;200.63;77.13;;;;;;;;;;2073774;28;20026;-56
2023/10/18 06:30:17;;;;;;;177.05;69.15;;;;;;;;;;2072934;28;20050;-57